sensor_id;sensor_type;location;lat;lon;timestamp;temperature;humidity
32769;DHT22;23049;54.304;8.826;2023-05-28T00:00:25;10.00;99.90
32769;DHT22;23049;54.304;8.826;2023-05-28T00:02:52;10.00;99.90
32769;DHT22;23049;54.304;8.826;2023-05-28T00:05:17;10.00;99.90
32769;DHT22;23049;54.304;8.826;2023-05-28T00:07:43;10.00;99.90
32769;DHT22;23049;54.304;8.826;2023-05-28T00:10:09;9.80;99.90
32769;DHT22;23049;54.304;8.826;2023-05-28T00:12:35;9.80;99.90
32769;DHT22;23049;54.304;8.826;2023-05-28T00:15:00;9.90;99.90
32769;DHT22;23049;54.304;8.826;2023-05-28T00:17:26;9.90;99.90
32769;DHT22;23049;54.304;8.826;2023-05-28T00:19:51;10.00;99.90
32769;DHT22;23049;54.304;8.826;2023-05-28T00:22:17;9.90;99.90
32769;DHT22;23049;54.304;8.826;2023-05-28T00:24:42;9.70;99.90
32769;DHT22;23049;54.304;8.826;2023-05-28T00:27:08;9.60;99.90
32769;DHT22;23049;54.304;8.826;2023-05-28T00:29:33;9.70;99.90
32769;DHT22;23049;54.304;8.826;2023-05-28T00:31:59;9.90;99.90
32769;DHT22;23049;54.304;8.826;2023-05-28T00:34:25;9.80;99.90
32769;DHT22;23049;54.304;8.826;2023-05-28T00:36:51;10.00;99.90
32769;DHT22;23049;54.304;8.826;2023-05-28T00:39:17;10.00;99.90
32769;DHT22;23049;54.304;8.826;2023-05-28T00:41:42;10.00;99.90
32769;DHT22;23049;54.304;8.826;2023-05-28T00:44:08;10.20;99.90
32769;DHT22;23049;54.304;8.826;2023-05-28T00:46:37;9.90;99.90
32769;DHT22;23049;54.304;8.826;2023-05-28T00:49:02;9.80;99.90
32769;DHT22;23049;54.304;8.826;2023-05-28T00:51:28;9.80;99.90
32769;DHT22;23049;54.304;8.826;2023-05-28T00:53:54;9.80;99.90
32769;DHT22;23049;54.304;8.826;2023-05-28T00:56:20;9.90;99.90
32769;DHT22;23049;54.304;8.826;2023-05-28T00:58:48;9.80;99.90
32769;DHT22;23049;54.304;8.826;2023-05-28T01:01:14;9.80;99.90
32769;DHT22;23049;54.304;8.826;2023-05-28T01:03:39;9.80;99.90
32769;DHT22;23049;54.304;8.826;2023-05-28T01:06:08;9.80;99.90
32769;DHT22;23049;54.304;8.826;2023-05-28T01:08:37;9.80;99.90
32769;DHT22;23049;54.304;8.826;2023-05-28T01:11:03;10.10;99.90
32769;DHT22;23049;54.304;8.826;2023-05-28T01:13:29;10.20;99.90
32769;DHT22;23049;54.304;8.826;2023-05-28T01:15:55;10.10;99.90
32769;DHT22;23049;54.304;8.826;2023-05-28T01:18:21;10.10;99.90
32769;DHT22;23049;54.304;8.826;2023-05-28T01:20:47;10.10;99.90
32769;DHT22;23049;54.304;8.826;2023-05-28T01:23:12;10.10;99.90
32769;DHT22;23049;54.304;8.826;2023-05-28T01:25:42;10.10;99.90
32769;DHT22;23049;54.304;8.826;2023-05-28T01:28:10;10.20;99.90
32769;DHT22;23049;54.304;8.826;2023-05-28T01:30:36;10.10;99.90
32769;DHT22;23049;54.304;8.826;2023-05-28T01:33:01;10.10;99.90
32769;DHT22;23049;54.304;8.826;2023-05-28T01:35:27;10.00;99.90
32769;DHT22;23049;54.304;8.826;2023-05-28T01:37:53;10.00;99.90
32769;DHT22;23049;54.304;8.826;2023-05-28T01:40:19;10.00;99.90
32769;DHT22;23049;54.304;8.826;2023-05-28T01:42:45;9.90;99.90
32769;DHT22;23049;54.304;8.826;2023-05-28T01:45:12;9.90;99.90
32769;DHT22;23049;54.304;8.826;2023-05-28T01:47:38;10.10;99.90
32769;DHT22;23049;54.304;8.826;2023-05-28T01:50:04;9.90;99.90
32769;DHT22;23049;54.304;8.826;2023-05-28T01:52:30;9.80;99.90
32769;DHT22;23049;54.304;8.826;2023-05-28T01:54:55;9.70;99.90
32769;DHT22;23049;54.304;8.826;2023-05-28T01:57:21;9.70;99.90
32769;DHT22;23049;54.304;8.826;2023-05-28T01:59:46;9.70;99.90
32769;DHT22;23049;54.304;8.826;2023-05-28T02:02:12;9.80;99.90
32769;DHT22;23049;54.304;8.826;2023-05-28T02:04:37;9.90;99.90
32769;DHT22;23049;54.304;8.826;2023-05-28T02:07:03;9.80;99.90
32769;DHT22;23049;54.304;8.826;2023-05-28T02:09:29;9.80;99.90
32769;DHT22;23049;54.304;8.826;2023-05-28T02:11:54;9.70;99.90
32769;DHT22;23049;54.304;8.826;2023-05-28T02:14:20;9.70;99.90
32769;DHT22;23049;54.304;8.826;2023-05-28T02:16:46;9.70;99.90
32769;DHT22;23049;54.304;8.826;2023-05-28T02:19:13;9.80;99.90
32769;DHT22;23049;54.304;8.826;2023-05-28T02:21:39;9.90;99.90
32769;DHT22;23049;54.304;8.826;2023-05-28T02:24:04;10.00;99.90
32769;DHT22;23049;54.304;8.826;2023-05-28T02:26:31;10.00;99.90
32769;DHT22;23049;54.304;8.826;2023-05-28T02:28:56;10.00;99.90
32769;DHT22;23049;54.304;8.826;2023-05-28T02:31:22;9.90;99.90
32769;DHT22;23049;54.304;8.826;2023-05-28T02:33:47;9.80;99.90
32769;DHT22;23049;54.304;8.826;2023-05-28T02:36:13;9.80;99.90
32769;DHT22;23049;54.304;8.826;2023-05-28T02:38:38;9.70;99.90
32769;DHT22;23049;54.304;8.826;2023-05-28T02:41:04;9.80;99.90
32769;DHT22;23049;54.304;8.826;2023-05-28T02:43:30;9.70;99.90
32769;DHT22;23049;54.304;8.826;2023-05-28T02:45:55;9.60;99.90
32769;DHT22;23049;54.304;8.826;2023-05-28T02:48:21;9.60;99.90
32769;DHT22;23049;54.304;8.826;2023-05-28T02:50:46;9.60;99.90
32769;DHT22;23049;54.304;8.826;2023-05-28T02:53:12;9.50;99.90
32769;DHT22;23049;54.304;8.826;2023-05-28T02:55:37;9.60;99.90
32769;DHT22;23049;54.304;8.826;2023-05-28T02:58:03;9.70;99.90
32769;DHT22;23049;54.304;8.826;2023-05-28T03:00:30;9.80;99.90
32769;DHT22;23049;54.304;8.826;2023-05-28T03:02:56;9.50;99.90
32769;DHT22;23049;54.304;8.826;2023-05-28T03:05:22;9.40;99.90
32769;DHT22;23049;54.304;8.826;2023-05-28T03:07:48;9.30;99.90
32769;DHT22;23049;54.304;8.826;2023-05-28T03:10:13;9.30;99.90
32769;DHT22;23049;54.304;8.826;2023-05-28T03:12:39;9.30;99.90
32769;DHT22;23049;54.304;8.826;2023-05-28T03:17:20;9.30;99.90
32769;DHT22;23049;54.304;8.826;2023-05-28T03:19:45;9.40;99.90
32769;DHT22;23049;54.304;8.826;2023-05-28T03:22:11;9.60;99.90
32769;DHT22;23049;54.304;8.826;2023-05-28T03:24:36;9.60;99.90
32769;DHT22;23049;54.304;8.826;2023-05-28T03:27:04;9.50;99.90
32769;DHT22;23049;54.304;8.826;2023-05-28T03:29:30;9.40;99.90
32769;DHT22;23049;54.304;8.826;2023-05-28T03:31:56;9.40;99.90
32769;DHT22;23049;54.304;8.826;2023-05-28T03:34:22;9.40;99.90
32769;DHT22;23049;54.304;8.826;2023-05-28T03:36:49;9.30;99.90
32769;DHT22;23049;54.304;8.826;2023-05-28T03:39:14;9.30;99.90
32769;DHT22;23049;54.304;8.826;2023-05-28T03:41:40;9.30;99.90
32769;DHT22;23049;54.304;8.826;2023-05-28T03:44:07;9.30;99.90
32769;DHT22;23049;54.304;8.826;2023-05-28T03:46:32;9.40;99.90
32769;DHT22;23049;54.304;8.826;2023-05-28T03:48:58;9.40;99.90
32769;DHT22;23049;54.304;8.826;2023-05-28T03:51:24;9.60;99.90
32769;DHT22;23049;54.304;8.826;2023-05-28T03:53:50;9.80;99.90
32769;DHT22;23049;54.304;8.826;2023-05-28T03:56:15;9.80;99.90
32769;DHT22;23049;54.304;8.826;2023-05-28T03:58:41;9.70;99.90
32769;DHT22;23049;54.304;8.826;2023-05-28T04:01:07;9.60;99.90
32769;DHT22;23049;54.304;8.826;2023-05-28T04:03:33;9.50;99.90
32769;DHT22;23049;54.304;8.826;2023-05-28T04:05:58;9.70;99.90
32769;DHT22;23049;54.304;8.826;2023-05-28T04:08:24;9.70;99.90
32769;DHT22;23049;54.304;8.826;2023-05-28T04:10:50;9.70;99.90
32769;DHT22;23049;54.304;8.826;2023-05-28T04:13:16;9.80;99.90
32769;DHT22;23049;54.304;8.826;2023-05-28T04:15:41;9.80;99.90
32769;DHT22;23049;54.304;8.826;2023-05-28T04:18:07;9.80;99.90
32769;DHT22;23049;54.304;8.826;2023-05-28T04:20:32;10.00;99.90
32769;DHT22;23049;54.304;8.826;2023-05-28T04:22:58;10.20;99.90
32769;DHT22;23049;54.304;8.826;2023-05-28T04:25:23;10.20;99.90
32769;DHT22;23049;54.304;8.826;2023-05-28T04:27:49;10.30;99.90
32769;DHT22;23049;54.304;8.826;2023-05-28T04:30:15;10.20;99.90
32769;DHT22;23049;54.304;8.826;2023-05-28T04:32:40;10.10;99.90
32769;DHT22;23049;54.304;8.826;2023-05-28T04:35:06;10.20;99.90
32769;DHT22;23049;54.304;8.826;2023-05-28T04:37:33;10.40;99.90
32769;DHT22;23049;54.304;8.826;2023-05-28T04:40:08;10.70;99.90
32769;DHT22;23049;54.304;8.826;2023-05-28T04:42:37;10.70;99.90
32769;DHT22;23049;54.304;8.826;2023-05-28T04:45:03;10.80;99.90
32769;DHT22;23049;54.304;8.826;2023-05-28T04:47:29;10.90;99.90
32769;DHT22;23049;54.304;8.826;2023-05-28T04:49:54;10.90;99.90
32769;DHT22;23049;54.304;8.826;2023-05-28T04:52:23;11.00;99.90
32769;DHT22;23049;54.304;8.826;2023-05-28T04:54:48;11.20;99.90
32769;DHT22;23049;54.304;8.826;2023-05-28T04:57:14;11.20;99.90
32769;DHT22;23049;54.304;8.826;2023-05-28T04:59:39;11.40;99.90
32769;DHT22;23049;54.304;8.826;2023-05-28T05:02:05;11.50;99.90
32769;DHT22;23049;54.304;8.826;2023-05-28T05:04:30;11.60;99.90
32769;DHT22;23049;54.304;8.826;2023-05-28T05:06:56;11.80;99.90
32769;DHT22;23049;54.304;8.826;2023-05-28T05:09:21;12.00;99.90
32769;DHT22;23049;54.304;8.826;2023-05-28T05:11:48;12.10;99.90
32769;DHT22;23049;54.304;8.826;2023-05-28T05:14:14;12.30;99.90
32769;DHT22;23049;54.304;8.826;2023-05-28T05:16:40;12.50;99.90
32769;DHT22;23049;54.304;8.826;2023-05-28T05:19:05;12.40;99.90
32769;DHT22;23049;54.304;8.826;2023-05-28T05:21:31;12.50;99.90
32769;DHT22;23049;54.304;8.826;2023-05-28T05:23:57;12.60;99.90
32769;DHT22;23049;54.304;8.826;2023-05-28T05:26:22;12.70;99.90
32769;DHT22;23049;54.304;8.826;2023-05-28T05:28:48;12.90;99.90
32769;DHT22;23049;54.304;8.826;2023-05-28T05:31:14;13.00;99.90
32769;DHT22;23049;54.304;8.826;2023-05-28T05:33:40;12.90;99.90
32769;DHT22;23049;54.304;8.826;2023-05-28T05:36:06;12.90;99.90
32769;DHT22;23049;54.304;8.826;2023-05-28T05:38:32;13.40;99.90
32769;DHT22;23049;54.304;8.826;2023-05-28T05:40:57;13.40;99.90
32769;DHT22;23049;54.304;8.826;2023-05-28T05:43:23;13.80;99.90
32769;DHT22;23049;54.304;8.826;2023-05-28T05:45:48;13.90;99.90
32769;DHT22;23049;54.304;8.826;2023-05-28T05:48:14;14.40;99.90
32769;DHT22;23049;54.304;8.826;2023-05-28T05:50:52;14.10;99.90
32769;DHT22;23049;54.304;8.826;2023-05-28T05:53:20;14.90;99.90
32769;DHT22;23049;54.304;8.826;2023-05-28T05:55:46;14.80;99.90
32769;DHT22;23049;54.304;8.826;2023-05-28T05:58:11;14.90;99.90
32769;DHT22;23049;54.304;8.826;2023-05-28T06:00:37;15.60;99.90
32769;DHT22;23049;54.304;8.826;2023-05-28T06:03:04;15.20;99.90
32769;DHT22;23049;54.304;8.826;2023-05-28T06:05:29;15.60;99.90
32769;DHT22;23049;54.304;8.826;2023-05-28T06:07:55;15.60;99.90
32769;DHT22;23049;54.304;8.826;2023-05-28T06:10:20;15.90;99.90
32769;DHT22;23049;54.304;8.826;2023-05-28T06:12:46;15.50;99.90
32769;DHT22;23049;54.304;8.826;2023-05-28T06:15:11;15.40;99.90
32769;DHT22;23049;54.304;8.826;2023-05-28T06:17:37;15.00;99.90
32769;DHT22;23049;54.304;8.826;2023-05-28T06:20:03;14.70;99.90
32769;DHT22;23049;54.304;8.826;2023-05-28T06:22:32;14.90;99.90
32769;DHT22;23049;54.304;8.826;2023-05-28T06:24:58;14.90;99.90
32769;DHT22;23049;54.304;8.826;2023-05-28T06:27:26;14.70;99.90
32769;DHT22;23049;54.304;8.826;2023-05-28T06:29:52;14.40;99.90
32769;DHT22;23049;54.304;8.826;2023-05-28T06:32:18;14.10;99.90
32769;DHT22;23049;54.304;8.826;2023-05-28T06:34:43;14.20;99.90
32769;DHT22;23049;54.304;8.826;2023-05-28T06:37:09;14.00;99.90
32769;DHT22;23049;54.304;8.826;2023-05-28T06:39:34;14.10;99.90
32769;DHT22;23049;54.304;8.826;2023-05-28T06:42:00;14.20;99.90
32769;DHT22;23049;54.304;8.826;2023-05-28T06:44:26;14.30;99.90
32769;DHT22;23049;54.304;8.826;2023-05-28T06:46:51;14.60;99.90
32769;DHT22;23049;54.304;8.826;2023-05-28T06:49:17;14.50;99.90
32769;DHT22;23049;54.304;8.826;2023-05-28T06:51:42;14.40;99.90
32769;DHT22;23049;54.304;8.826;2023-05-28T06:54:08;14.20;99.90
32769;DHT22;23049;54.304;8.826;2023-05-28T06:56:33;14.20;99.90
32769;DHT22;23049;54.304;8.826;2023-05-28T06:58:59;14.30;99.90
32769;DHT22;23049;54.304;8.826;2023-05-28T07:01:24;14.20;99.90
32769;DHT22;23049;54.304;8.826;2023-05-28T07:03:50;14.20;99.90
32769;DHT22;23049;54.304;8.826;2023-05-28T07:06:15;14.20;99.90
32769;DHT22;23049;54.304;8.826;2023-05-28T07:08:41;14.20;99.90
32769;DHT22;23049;54.304;8.826;2023-05-28T07:11:13;14.30;99.90
32769;DHT22;23049;54.304;8.826;2023-05-28T07:13:39;14.10;99.90
32769;DHT22;23049;54.304;8.826;2023-05-28T07:16:08;14.10;99.90
32769;DHT22;23049;54.304;8.826;2023-05-28T07:18:33;14.20;99.90
32769;DHT22;23049;54.304;8.826;2023-05-28T07:20:59;14.40;99.90
32769;DHT22;23049;54.304;8.826;2023-05-28T07:23:24;14.50;99.90
32769;DHT22;23049;54.304;8.826;2023-05-28T07:25:50;14.40;99.90
32769;DHT22;23049;54.304;8.826;2023-05-28T07:28:16;14.40;99.90
32769;DHT22;23049;54.304;8.826;2023-05-28T07:30:41;14.20;99.90
32769;DHT22;23049;54.304;8.826;2023-05-28T07:33:07;14.30;99.90
32769;DHT22;23049;54.304;8.826;2023-05-28T07:35:33;14.20;99.90
32769;DHT22;23049;54.304;8.826;2023-05-28T07:37:58;14.40;99.90
32769;DHT22;23049;54.304;8.826;2023-05-28T07:40:24;14.60;99.90
32769;DHT22;23049;54.304;8.826;2023-05-28T07:42:50;14.70;99.90
32769;DHT22;23049;54.304;8.826;2023-05-28T07:45:15;14.70;99.90
32769;DHT22;23049;54.304;8.826;2023-05-28T07:47:41;14.90;99.90
32769;DHT22;23049;54.304;8.826;2023-05-28T07:50:06;14.80;99.90
32769;DHT22;23049;54.304;8.826;2023-05-28T07:52:33;14.90;99.90
32769;DHT22;23049;54.304;8.826;2023-05-28T07:54:58;14.90;99.90
32769;DHT22;23049;54.304;8.826;2023-05-28T07:57:24;14.90;99.90
32769;DHT22;23049;54.304;8.826;2023-05-28T07:59:50;14.90;99.90
32769;DHT22;23049;54.304;8.826;2023-05-28T08:02:16;15.00;99.90
32769;DHT22;23049;54.304;8.826;2023-05-28T08:04:41;15.10;99.90
32769;DHT22;23049;54.304;8.826;2023-05-28T08:09:20;15.30;99.90
32769;DHT22;23049;54.304;8.826;2023-05-28T08:11:46;15.20;99.90
32769;DHT22;23049;54.304;8.826;2023-05-28T08:14:11;15.30;99.90
32769;DHT22;23049;54.304;8.826;2023-05-28T08:16:37;15.20;99.90
32769;DHT22;23049;54.304;8.826;2023-05-28T08:19:02;15.20;99.90
32769;DHT22;23049;54.304;8.826;2023-05-28T08:21:28;15.40;99.90
32769;DHT22;23049;54.304;8.826;2023-05-28T08:23:56;15.30;99.90
32769;DHT22;23049;54.304;8.826;2023-05-28T08:26:21;15.50;99.90
32769;DHT22;23049;54.304;8.826;2023-05-28T08:28:47;15.50;99.90
32769;DHT22;23049;54.304;8.826;2023-05-28T08:31:13;15.50;99.90
32769;DHT22;23049;54.304;8.826;2023-05-28T08:33:38;15.40;99.90
32769;DHT22;23049;54.304;8.826;2023-05-28T08:36:04;15.50;99.90
32769;DHT22;23049;54.304;8.826;2023-05-28T08:38:30;15.50;99.90
32769;DHT22;23049;54.304;8.826;2023-05-28T08:40:55;15.50;99.90
32769;DHT22;23049;54.304;8.826;2023-05-28T08:43:21;15.60;99.90
32769;DHT22;23049;54.304;8.826;2023-05-28T08:45:49;15.50;99.90
32769;DHT22;23049;54.304;8.826;2023-05-28T08:48:15;15.50;99.90
32769;DHT22;23049;54.304;8.826;2023-05-28T08:50:41;15.50;99.90
32769;DHT22;23049;54.304;8.826;2023-05-28T08:53:10;15.40;99.90
32769;DHT22;23049;54.304;8.826;2023-05-28T08:55:38;15.50;99.90
32769;DHT22;23049;54.304;8.826;2023-05-28T08:58:04;15.40;99.90
32769;DHT22;23049;54.304;8.826;2023-05-28T09:00:30;15.50;99.90
32769;DHT22;23049;54.304;8.826;2023-05-28T09:02:56;15.40;99.90
32769;DHT22;23049;54.304;8.826;2023-05-28T09:05:22;15.50;99.90
32769;DHT22;23049;54.304;8.826;2023-05-28T09:07:47;15.40;99.90
32769;DHT22;23049;54.304;8.826;2023-05-28T09:10:13;15.40;99.90
32769;DHT22;23049;54.304;8.826;2023-05-28T09:12:38;15.50;99.90
32769;DHT22;23049;54.304;8.826;2023-05-28T09:15:06;15.50;99.90
32769;DHT22;23049;54.304;8.826;2023-05-28T09:17:33;15.50;99.90
32769;DHT22;23049;54.304;8.826;2023-05-28T09:19:59;15.50;99.90
32769;DHT22;23049;54.304;8.826;2023-05-28T09:22:29;15.40;99.90
32769;DHT22;23049;54.304;8.826;2023-05-28T09:24:55;15.50;99.90
32769;DHT22;23049;54.304;8.826;2023-05-28T09:27:21;15.60;99.90
32769;DHT22;23049;54.304;8.826;2023-05-28T09:29:48;15.90;99.90
32769;DHT22;23049;54.304;8.826;2023-05-28T09:32:17;15.90;99.90
32769;DHT22;23049;54.304;8.826;2023-05-28T09:34:43;16.00;99.90
32769;DHT22;23049;54.304;8.826;2023-05-28T09:37:08;15.90;99.90
32769;DHT22;23049;54.304;8.826;2023-05-28T09:39:34;15.90;99.90
32769;DHT22;23049;54.304;8.826;2023-05-28T09:44:35;16.00;99.90
32769;DHT22;23049;54.304;8.826;2023-05-28T09:47:00;16.00;99.90
32769;DHT22;23049;54.304;8.826;2023-05-28T09:49:27;16.30;99.90
32769;DHT22;23049;54.304;8.826;2023-05-28T09:51:53;16.10;99.90
32769;DHT22;23049;54.304;8.826;2023-05-28T09:54:21;16.20;99.90
32769;DHT22;23049;54.304;8.826;2023-05-28T09:56:47;16.10;99.90
32769;DHT22;23049;54.304;8.826;2023-05-28T09:59:16;16.10;99.90
32769;DHT22;23049;54.304;8.826;2023-05-28T10:04:35;16.20;99.90
32769;DHT22;23049;54.304;8.826;2023-05-28T10:07:03;16.40;99.90
32769;DHT22;23049;54.304;8.826;2023-05-28T10:09:29;16.30;99.90
32769;DHT22;23049;54.304;8.826;2023-05-28T10:11:59;16.40;99.90
32769;DHT22;23049;54.304;8.826;2023-05-28T10:14:26;16.40;99.90
32769;DHT22;23049;54.304;8.826;2023-05-28T10:16:52;16.40;99.90
32769;DHT22;23049;54.304;8.826;2023-05-28T10:19:17;16.50;99.90
32769;DHT22;23049;54.304;8.826;2023-05-28T10:21:43;16.50;99.90
32769;DHT22;23049;54.304;8.826;2023-05-28T10:24:08;16.50;99.90
32769;DHT22;23049;54.304;8.826;2023-05-28T10:26:35;16.50;99.90
32769;DHT22;23049;54.304;8.826;2023-05-28T10:29:01;16.60;99.90
32769;DHT22;23049;54.304;8.826;2023-05-28T10:31:30;16.80;99.90
32769;DHT22;23049;54.304;8.826;2023-05-28T10:33:56;17.00;99.90
32769;DHT22;23049;54.304;8.826;2023-05-28T10:36:21;17.00;99.90
32769;DHT22;23049;54.304;8.826;2023-05-28T10:41:18;17.00;99.90
32769;DHT22;23049;54.304;8.826;2023-05-28T10:43:45;17.10;99.90
32769;DHT22;23049;54.304;8.826;2023-05-28T10:46:12;17.20;99.90
32769;DHT22;23049;54.304;8.826;2023-05-28T10:48:38;17.30;99.90
32769;DHT22;23049;54.304;8.826;2023-05-28T10:51:04;17.10;99.90
32769;DHT22;23049;54.304;8.826;2023-05-28T10:53:30;17.10;99.90
32769;DHT22;23049;54.304;8.826;2023-05-28T10:55:55;17.30;99.90
32769;DHT22;23049;54.304;8.826;2023-05-28T11:03:37;17.30;99.90
32769;DHT22;23049;54.304;8.826;2023-05-28T11:06:03;17.30;99.90
32769;DHT22;23049;54.304;8.826;2023-05-28T11:08:29;17.50;99.90
32769;DHT22;23049;54.304;8.826;2023-05-28T11:10:55;17.70;99.90
32769;DHT22;23049;54.304;8.826;2023-05-28T11:13:20;17.60;99.90
32769;DHT22;23049;54.304;8.826;2023-05-28T11:15:46;17.60;99.90
32769;DHT22;23049;54.304;8.826;2023-05-28T11:18:12;17.50;99.90
32769;DHT22;23049;54.304;8.826;2023-05-28T11:20:37;17.60;99.90
32769;DHT22;23049;54.304;8.826;2023-05-28T11:23:13;17.50;99.90
32769;DHT22;23049;54.304;8.826;2023-05-28T11:25:41;17.70;99.90
32769;DHT22;23049;54.304;8.826;2023-05-28T11:28:07;17.60;99.90
32769;DHT22;23049;54.304;8.826;2023-05-28T11:30:32;17.70;99.90
32769;DHT22;23049;54.304;8.826;2023-05-28T11:33:01;18.00;99.90
32769;DHT22;23049;54.304;8.826;2023-05-28T11:35:27;17.90;99.90
32769;DHT22;23049;54.304;8.826;2023-05-28T11:37:52;17.90;99.90
32769;DHT22;23049;54.304;8.826;2023-05-28T11:40:18;17.90;99.90
32769;DHT22;23049;54.304;8.826;2023-05-28T11:42:44;17.70;99.90
32769;DHT22;23049;54.304;8.826;2023-05-28T11:45:10;17.80;99.90
32769;DHT22;23049;54.304;8.826;2023-05-28T11:47:36;17.90;99.90
32769;DHT22;23049;54.304;8.826;2023-05-28T11:50:09;18.10;99.90
32769;DHT22;23049;54.304;8.826;2023-05-28T11:54:54;18.20;99.90
32769;DHT22;23049;54.304;8.826;2023-05-28T11:57:20;18.20;99.90
32769;DHT22;23049;54.304;8.826;2023-05-28T12:02:41;17.90;99.90
32769;DHT22;23049;54.304;8.826;2023-05-28T12:05:06;17.90;99.90
32769;DHT22;23049;54.304;8.826;2023-05-28T12:07:33;18.10;99.90
32769;DHT22;23049;54.304;8.826;2023-05-28T12:10:02;18.10;99.90
32769;DHT22;23049;54.304;8.826;2023-05-28T12:12:29;18.10;99.90
32769;DHT22;23049;54.304;8.826;2023-05-28T12:14:56;18.20;99.90
32769;DHT22;23049;54.304;8.826;2023-05-28T12:17:23;17.80;99.90
32769;DHT22;23049;54.304;8.826;2023-05-28T12:19:49;17.40;99.90
32769;DHT22;23049;54.304;8.826;2023-05-28T12:22:15;17.40;99.90
32769;DHT22;23049;54.304;8.826;2023-05-28T12:24:50;17.70;99.90
32769;DHT22;23049;54.304;8.826;2023-05-28T12:27:21;17.80;99.90
32769;DHT22;23049;54.304;8.826;2023-05-28T12:29:47;18.00;99.90
32769;DHT22;23049;54.304;8.826;2023-05-28T12:32:12;18.10;99.90
32769;DHT22;23049;54.304;8.826;2023-05-28T12:34:38;18.00;99.90
32769;DHT22;23049;54.304;8.826;2023-05-28T12:37:04;17.90;99.90
32769;DHT22;23049;54.304;8.826;2023-05-28T12:39:29;17.90;99.90
32769;DHT22;23049;54.304;8.826;2023-05-28T12:41:55;18.00;99.90
32769;DHT22;23049;54.304;8.826;2023-05-28T12:44:20;18.00;99.90
32769;DHT22;23049;54.304;8.826;2023-05-28T12:46:46;17.60;99.90
32769;DHT22;23049;54.304;8.826;2023-05-28T12:49:12;17.80;99.90
32769;DHT22;23049;54.304;8.826;2023-05-28T12:51:37;17.70;99.90
32769;DHT22;23049;54.304;8.826;2023-05-28T12:54:05;17.60;99.90
32769;DHT22;23049;54.304;8.826;2023-05-28T12:56:31;17.50;99.90
32769;DHT22;23049;54.304;8.826;2023-05-28T12:58:57;17.80;99.90
32769;DHT22;23049;54.304;8.826;2023-05-28T13:01:23;17.80;99.90
32769;DHT22;23049;54.304;8.826;2023-05-28T13:03:49;18.00;99.90
32769;DHT22;23049;54.304;8.826;2023-05-28T13:06:15;18.10;99.90
32769;DHT22;23049;54.304;8.826;2023-05-28T13:08:41;18.00;99.90
32769;DHT22;23049;54.304;8.826;2023-05-28T13:13:19;17.30;99.90
32769;DHT22;23049;54.304;8.826;2023-05-28T13:15:45;17.10;99.90
32769;DHT22;23049;54.304;8.826;2023-05-28T13:18:10;17.40;99.90
32769;DHT22;23049;54.304;8.826;2023-05-28T13:20:36;17.30;99.90
32769;DHT22;23049;54.304;8.826;2023-05-28T13:23:01;17.50;99.90
32769;DHT22;23049;54.304;8.826;2023-05-28T13:25:27;17.70;99.90
32769;DHT22;23049;54.304;8.826;2023-05-28T13:27:53;17.70;99.90
32769;DHT22;23049;54.304;8.826;2023-05-28T13:30:18;17.60;99.90
32769;DHT22;23049;54.304;8.826;2023-05-28T13:32:44;17.50;99.90
32769;DHT22;23049;54.304;8.826;2023-05-28T13:35:09;17.60;99.90
32769;DHT22;23049;54.304;8.826;2023-05-28T13:37:39;17.60;99.90
32769;DHT22;23049;54.304;8.826;2023-05-28T13:40:05;17.50;99.90
32769;DHT22;23049;54.304;8.826;2023-05-28T13:42:36;17.30;99.90
32769;DHT22;23049;54.304;8.826;2023-05-28T13:45:01;17.50;99.90
32769;DHT22;23049;54.304;8.826;2023-05-28T13:47:27;17.50;99.90
32769;DHT22;23049;54.304;8.826;2023-05-28T13:49:52;17.30;99.90
32769;DHT22;23049;54.304;8.826;2023-05-28T13:52:18;17.20;99.90
32769;DHT22;23049;54.304;8.826;2023-05-28T13:54:43;17.20;99.90
32769;DHT22;23049;54.304;8.826;2023-05-28T13:57:09;17.20;99.90
32769;DHT22;23049;54.304;8.826;2023-05-28T13:59:35;17.30;99.90
32769;DHT22;23049;54.304;8.826;2023-05-28T14:02:01;17.20;99.90
32769;DHT22;23049;54.304;8.826;2023-05-28T14:04:26;17.30;99.90
32769;DHT22;23049;54.304;8.826;2023-05-28T14:06:52;17.30;99.90
32769;DHT22;23049;54.304;8.826;2023-05-28T14:09:17;17.30;99.90
32769;DHT22;23049;54.304;8.826;2023-05-28T14:11:43;17.30;99.90
32769;DHT22;23049;54.304;8.826;2023-05-28T14:14:09;17.10;99.90
32769;DHT22;23049;54.304;8.826;2023-05-28T14:16:34;17.10;99.90
32769;DHT22;23049;54.304;8.826;2023-05-28T14:18:59;17.20;99.90
32769;DHT22;23049;54.304;8.826;2023-05-28T14:21:25;17.20;99.90
32769;DHT22;23049;54.304;8.826;2023-05-28T14:23:51;17.20;99.90
32769;DHT22;23049;54.304;8.826;2023-05-28T14:26:16;17.20;99.90
32769;DHT22;23049;54.304;8.826;2023-05-28T14:28:42;17.10;99.90
32769;DHT22;23049;54.304;8.826;2023-05-28T14:31:07;17.10;99.90
32769;DHT22;23049;54.304;8.826;2023-05-28T14:33:33;17.10;99.90
32769;DHT22;23049;54.304;8.826;2023-05-28T14:35:58;17.10;99.90
32769;DHT22;23049;54.304;8.826;2023-05-28T14:38:24;17.10;99.90
32769;DHT22;23049;54.304;8.826;2023-05-28T14:40:49;16.90;99.90
32769;DHT22;23049;54.304;8.826;2023-05-28T14:43:15;17.00;99.90
32769;DHT22;23049;54.304;8.826;2023-05-28T14:47:51;17.00;99.90
32769;DHT22;23049;54.304;8.826;2023-05-28T14:50:17;16.90;99.90
32769;DHT22;23049;54.304;8.826;2023-05-28T14:52:42;16.90;99.90
32769;DHT22;23049;54.304;8.826;2023-05-28T14:55:08;16.90;99.90
32769;DHT22;23049;54.304;8.826;2023-05-28T14:57:34;16.90;99.90
32769;DHT22;23049;54.304;8.826;2023-05-28T15:00:02;16.90;99.90
32769;DHT22;23049;54.304;8.826;2023-05-28T15:02:35;16.80;99.90
32769;DHT22;23049;54.304;8.826;2023-05-28T15:05:00;16.70;99.90
32769;DHT22;23049;54.304;8.826;2023-05-28T15:07:26;16.70;99.90
32769;DHT22;23049;54.304;8.826;2023-05-28T15:09:51;16.60;99.90
32769;DHT22;23049;54.304;8.826;2023-05-28T15:12:17;16.60;99.90
32769;DHT22;23049;54.304;8.826;2023-05-28T15:14:42;16.50;99.90
32769;DHT22;23049;54.304;8.826;2023-05-28T15:17:08;16.50;99.90
32769;DHT22;23049;54.304;8.826;2023-05-28T15:19:33;16.40;99.90
32769;DHT22;23049;54.304;8.826;2023-05-28T15:21:59;16.60;99.90
32769;DHT22;23049;54.304;8.826;2023-05-28T15:24:24;16.50;99.90
32769;DHT22;23049;54.304;8.826;2023-05-28T15:26:50;16.40;99.90
32769;DHT22;23049;54.304;8.826;2023-05-28T15:29:16;16.50;99.90
32769;DHT22;23049;54.304;8.826;2023-05-28T15:31:44;16.40;99.90
32769;DHT22;23049;54.304;8.826;2023-05-28T15:34:10;16.30;99.90
32769;DHT22;23049;54.304;8.826;2023-05-28T15:36:35;16.30;99.90
32769;DHT22;23049;54.304;8.826;2023-05-28T15:39:02;16.20;99.90
32769;DHT22;23049;54.304;8.826;2023-05-28T15:41:27;16.20;99.90
32769;DHT22;23049;54.304;8.826;2023-05-28T15:43:53;16.10;99.90
32769;DHT22;23049;54.304;8.826;2023-05-28T15:46:19;16.00;99.90
32769;DHT22;23049;54.304;8.826;2023-05-28T15:48:45;16.00;99.90
32769;DHT22;23049;54.304;8.826;2023-05-28T15:51:11;16.00;99.90
32769;DHT22;23049;54.304;8.826;2023-05-28T15:53:36;15.90;99.90